sensor_id;sensor_type;location;lat;lon;timestamp;pressure;altitude;pressure_sealevel;temperature;humidity
48718;BME280;34521;33.042;-96.586;2023-04-22T00:00:38;99527.12;;;20.84;37.06
48718;BME280;34521;33.042;-96.586;2023-04-22T00:03:03;99516.38;;;20.80;36.91
48718;BME280;34521;33.042;-96.586;2023-04-22T00:05:28;99525.18;;;19.89;37.36
48718;BME280;34521;33.042;-96.586;2023-04-22T00:07:53;99528.77;;;20.50;35.78
48718;BME280;34521;33.042;-96.586;2023-04-22T00:10:18;99529.39;;;21.68;35.19
48718;BME280;34521;33.042;-96.586;2023-04-22T00:12:43;99525.45;;;21.57;34.70
48718;BME280;34521;33.042;-96.586;2023-04-22T00:15:09;99528.81;;;23.15;32.49
48718;BME280;34521;33.042;-96.586;2023-04-22T00:17:34;99527.84;;;22.27;33.01
48718;BME280;34521;33.042;-96.586;2023-04-22T00:19:58;99531.00;;;22.45;33.11
48718;BME280;34521;33.042;-96.586;2023-04-22T00:22:23;99531.60;;;22.55;32.93
48718;BME280;34521;33.042;-96.586;2023-04-22T00:24:48;99526.61;;;22.62;32.62
48718;BME280;34521;33.042;-96.586;2023-04-22T00:27:13;99529.76;;;23.14;32.33
48718;BME280;34521;33.042;-96.586;2023-04-22T00:29:39;99531.09;;;22.33;33.02
48718;BME280;34521;33.042;-96.586;2023-04-22T00:32:04;99531.00;;;22.63;32.85
48718;BME280;34521;33.042;-96.586;2023-04-22T00:34:29;99538.37;;;23.04;32.39
48718;BME280;34521;33.042;-96.586;2023-04-22T00:36:55;99541.99;;;22.93;32.57
48718;BME280;34521;33.042;-96.586;2023-04-22T00:39:19;99547.73;;;23.45;32.31
48718;BME280;34521;33.042;-96.586;2023-04-22T00:41:44;99548.47;;;22.87;32.70
48718;BME280;34521;33.042;-96.586;2023-04-22T00:44:09;99551.54;;;22.75;32.91
48718;BME280;34521;33.042;-96.586;2023-04-22T00:46:34;99551.54;;;22.86;32.87
48718;BME280;34521;33.042;-96.586;2023-04-22T00:49:00;99555.72;;;22.56;33.27
48718;BME280;34521;33.042;-96.586;2023-04-22T00:51:24;99560.65;;;22.78;33.08
48718;BME280;34521;33.042;-96.586;2023-04-22T00:53:49;99558.80;;;22.48;33.48
48718;BME280;34521;33.042;-96.586;2023-04-22T00:56:14;99563.79;;;21.98;35.69
48718;BME280;34521;33.042;-96.586;2023-04-22T00:58:40;99560.14;;;20.71;37.03
48718;BME280;34521;33.042;-96.586;2023-04-22T01:01:04;99558.46;;;21.44;36.39
48718;BME280;34521;33.042;-96.586;2023-04-22T01:03:30;99559.15;;;20.75;37.15
48718;BME280;34521;33.042;-96.586;2023-04-22T01:05:54;99560.50;;;20.64;36.39
48718;BME280;34521;33.042;-96.586;2023-04-22T01:08:20;99559.97;;;20.01;37.02
48718;BME280;34521;33.042;-96.586;2023-04-22T01:10:45;99560.79;;;21.05;35.83
48718;BME280;34521;33.042;-96.586;2023-04-22T01:13:10;99560.92;;;21.77;34.77
48718;BME280;34521;33.042;-96.586;2023-04-22T01:15:35;99563.76;;;22.00;34.40
48718;BME280;34521;33.042;-96.586;2023-04-22T01:18:00;99569.91;;;22.48;33.69
48718;BME280;34521;33.042;-96.586;2023-04-22T01:20:26;99571.44;;;22.02;34.04
48718;BME280;34521;33.042;-96.586;2023-04-22T01:22:50;99576.93;;;22.79;33.37
48718;BME280;34521;33.042;-96.586;2023-04-22T01:25:15;99578.41;;;22.51;33.26
48718;BME280;34521;33.042;-96.586;2023-04-22T01:27:40;99576.43;;;24.03;32.03
48718;BME280;34521;33.042;-96.586;2023-04-22T01:30:06;99590.33;;;22.97;32.77
48718;BME280;34521;33.042;-96.586;2023-04-22T01:32:30;99593.58;;;23.11;32.66
48718;BME280;34521;33.042;-96.586;2023-04-22T01:34:55;99585.31;;;22.91;32.91
48718;BME280;34521;33.042;-96.586;2023-04-22T01:37:21;99585.19;;;23.28;32.53
48718;BME280;34521;33.042;-96.586;2023-04-22T01:39:46;99587.65;;;23.04;32.81
48718;BME280;34521;33.042;-96.586;2023-04-22T01:42:10;99593.46;;;23.10;32.76
48718;BME280;34521;33.042;-96.586;2023-04-22T01:44:35;99596.35;;;22.95;32.97
48718;BME280;34521;33.042;-96.586;2023-04-22T01:47:00;99602.01;;;22.97;33.02
48718;BME280;34521;33.042;-96.586;2023-04-22T01:49:25;99603.97;;;23.13;32.81
48718;BME280;34521;33.042;-96.586;2023-04-22T01:51:50;99605.27;;;23.12;32.86
48718;BME280;34521;33.042;-96.586;2023-04-22T01:54:15;99608.97;;;23.07;33.01
48718;BME280;34521;33.042;-96.586;2023-04-22T01:56:40;99613.03;;;20.37;36.34
48718;BME280;34521;33.042;-96.586;2023-04-22T01:59:05;99621.02;;;19.66;36.74
48718;BME280;34521;33.042;-96.586;2023-04-22T02:01:30;99617.08;;;21.15;35.30
48718;BME280;34521;33.042;-96.586;2023-04-22T02:03:56;99621.56;;;21.47;36.05
48718;BME280;34521;33.042;-96.586;2023-04-22T02:06:20;99625.31;;;21.23;35.90
48718;BME280;34521;33.042;-96.586;2023-04-22T02:08:46;99629.97;;;21.74;35.01
48718;BME280;34521;33.042;-96.586;2023-04-22T02:11:12;99634.12;;;22.10;34.66
48718;BME280;34521;33.042;-96.586;2023-04-22T02:13:36;99639.80;;;21.30;35.63
48718;BME280;34521;33.042;-96.586;2023-04-22T02:16:01;99640.88;;;21.97;35.49
48718;BME280;34521;33.042;-96.586;2023-04-22T02:18:26;99641.46;;;21.71;35.97
48718;BME280;34521;33.042;-96.586;2023-04-22T02:20:51;99640.74;;;22.11;35.50
48718;BME280;34521;33.042;-96.586;2023-04-22T02:23:16;99637.41;;;21.82;35.94
48718;BME280;34521;33.042;-96.586;2023-04-22T02:25:48;99641.96;;;21.73;35.83
48718;BME280;34521;33.042;-96.586;2023-04-22T02:28:06;99645.81;;;22.30;35.15
48718;BME280;34521;33.042;-96.586;2023-04-22T02:30:31;99645.59;;;22.25;34.99
48718;BME280;34521;33.042;-96.586;2023-04-22T02:32:56;99650.89;;;22.32;35.53
48718;BME280;34521;33.042;-96.586;2023-04-22T02:35:22;99652.14;;;21.94;36.10
48718;BME280;34521;33.042;-96.586;2023-04-22T02:37:47;99657.39;;;22.37;35.27
48718;BME280;34521;33.042;-96.586;2023-04-22T02:40:12;99661.42;;;22.68;35.21
48718;BME280;34521;33.042;-96.586;2023-04-22T02:42:37;99661.99;;;22.48;34.70
48718;BME280;34521;33.042;-96.586;2023-04-22T02:45:01;99668.46;;;22.50;34.49
48718;BME280;34521;33.042;-96.586;2023-04-22T02:47:27;99667.77;;;22.92;33.78
48718;BME280;34521;33.042;-96.586;2023-04-22T02:49:51;99671.42;;;22.73;33.61
48718;BME280;34521;33.042;-96.586;2023-04-22T02:52:17;99676.17;;;21.69;36.25
48718;BME280;34521;33.042;-96.586;2023-04-22T02:54:42;99676.17;;;21.11;37.10
48718;BME280;34521;33.042;-96.586;2023-04-22T02:57:07;99679.29;;;21.90;35.88
48718;BME280;34521;33.042;-96.586;2023-04-22T02:59:33;99680.37;;;21.60;36.09
48718;BME280;34521;33.042;-96.586;2023-04-22T03:01:57;99681.49;;;21.43;36.13
48718;BME280;34521;33.042;-96.586;2023-04-22T03:04:22;99681.23;;;22.14;34.94
48718;BME280;34521;33.042;-96.586;2023-04-22T03:06:47;99681.94;;;21.80;34.95
48718;BME280;34521;33.042;-96.586;2023-04-22T03:09:12;99687.13;;;22.13;34.78
48718;BME280;34521;33.042;-96.586;2023-04-22T03:11:37;99691.61;;;21.68;35.04
48718;BME280;34521;33.042;-96.586;2023-04-22T03:14:03;99695.19;;;21.72;34.97
48718;BME280;34521;33.042;-96.586;2023-04-22T03:16:28;99692.14;;;21.81;34.86
48718;BME280;34521;33.042;-96.586;2023-04-22T03:18:52;99689.57;;;21.66;35.00
48718;BME280;34521;33.042;-96.586;2023-04-22T03:21:17;99689.59;;;22.11;34.43
48718;BME280;34521;33.042;-96.586;2023-04-22T03:23:47;99689.09;;;21.93;34.62
48718;BME280;34521;33.042;-96.586;2023-04-22T03:26:07;99693.38;;;21.71;34.96
48718;BME280;34521;33.042;-96.586;2023-04-22T03:28:32;99691.81;;;21.69;34.97
48718;BME280;34521;33.042;-96.586;2023-04-22T03:30:59;99691.79;;;21.78;34.82
48718;BME280;34521;33.042;-96.586;2023-04-22T03:33:22;99692.63;;;21.70;34.89
48718;BME280;34521;33.042;-96.586;2023-04-22T03:35:48;99692.55;;;22.01;34.45
48718;BME280;34521;33.042;-96.586;2023-04-22T03:38:13;99697.43;;;21.96;34.51
48718;BME280;34521;33.042;-96.586;2023-04-22T03:40:37;99702.31;;;22.09;34.60
48718;BME280;34521;33.042;-96.586;2023-04-22T03:43:03;99704.85;;;21.84;34.69
48718;BME280;34521;33.042;-96.586;2023-04-22T03:45:28;99709.31;;;21.68;34.85
48718;BME280;34521;33.042;-96.586;2023-04-22T03:47:53;99706.38;;;21.65;34.85
48718;BME280;34521;33.042;-96.586;2023-04-22T03:50:18;99703.48;;;21.08;36.14
48718;BME280;34521;33.042;-96.586;2023-04-22T03:52:43;99708.79;;;20.04;37.08
48718;BME280;34521;33.042;-96.586;2023-04-22T03:55:09;99708.94;;;19.47;38.21
48718;BME280;34521;33.042;-96.586;2023-04-22T03:57:33;99704.85;;;19.35;39.07
48718;BME280;34521;33.042;-96.586;2023-04-22T03:59:58;99700.56;;;18.96;39.55
48718;BME280;34521;33.042;-96.586;2023-04-22T04:02:23;99697.24;;;21.04;36.85
48718;BME280;34521;33.042;-96.586;2023-04-22T04:04:48;99689.91;;;21.40;35.81
48718;BME280;34521;33.042;-96.586;2023-04-22T04:07:13;99687.45;;;21.45;35.39
48718;BME280;34521;33.042;-96.586;2023-04-22T04:09:38;99687.39;;;21.60;35.09
48718;BME280;34521;33.042;-96.586;2023-04-22T04:12:08;99680.19;;;21.72;34.60
48718;BME280;34521;33.042;-96.586;2023-04-22T04:14:28;99681.42;;;21.66;34.64
48718;BME280;34521;33.042;-96.586;2023-04-22T04:16:53;99681.84;;;21.35;34.70
48718;BME280;34521;33.042;-96.586;2023-04-22T04:19:18;99681.01;;;21.38;34.66
48718;BME280;34521;33.042;-96.586;2023-04-22T04:21:43;99684.12;;;21.27;34.81
48718;BME280;34521;33.042;-96.586;2023-04-22T04:24:08;99679.32;;;21.41;34.57
48718;BME280;34521;33.042;-96.586;2023-04-22T04:26:34;99677.19;;;21.46;34.50
48718;BME280;34521;33.042;-96.586;2023-04-22T04:28:59;99676.91;;;21.48;34.43
48718;BME280;34521;33.042;-96.586;2023-04-22T04:31:24;99672.34;;;21.65;34.54
48718;BME280;34521;33.042;-96.586;2023-04-22T04:33:49;99670.90;;;21.60;34.55
48718;BME280;34521;33.042;-96.586;2023-04-22T04:36:14;99670.32;;;21.37;34.55
48718;BME280;34521;33.042;-96.586;2023-04-22T04:38:39;99663.42;;;21.37;34.47
48718;BME280;34521;33.042;-96.586;2023-04-22T04:41:05;99663.75;;;21.62;34.19
48718;BME280;34521;33.042;-96.586;2023-04-22T04:43:29;99662.45;;;21.95;34.30
48718;BME280;34521;33.042;-96.586;2023-04-22T04:45:54;99658.27;;;23.04;32.86
48718;BME280;34521;33.042;-96.586;2023-04-22T04:48:19;99653.06;;;22.86;33.18
48718;BME280;34521;33.042;-96.586;2023-04-22T04:50:44;99652.36;;;23.14;33.16
48718;BME280;34521;33.042;-96.586;2023-04-22T04:53:09;99648.78;;;22.92;32.78
48718;BME280;34521;33.042;-96.586;2023-04-22T04:55:34;99645.05;;;23.22;32.48
48718;BME280;34521;33.042;-96.586;2023-04-22T04:57:59;99646.01;;;22.91;33.15
48718;BME280;34521;33.042;-96.586;2023-04-22T05:00:24;99641.63;;;23.12;32.50
48718;BME280;34521;33.042;-96.586;2023-04-22T05:02:49;99631.93;;;22.25;33.57
48718;BME280;34521;33.042;-96.586;2023-04-22T05:05:15;99632.00;;;22.76;33.39
48718;BME280;34521;33.042;-96.586;2023-04-22T05:07:39;99634.30;;;22.08;33.97
48718;BME280;34521;33.042;-96.586;2023-04-22T05:10:05;99629.45;;;22.83;33.41
48718;BME280;34521;33.042;-96.586;2023-04-22T05:12:29;99632.48;;;22.30;34.17
48718;BME280;34521;33.042;-96.586;2023-04-22T05:15:16;99628.21;;;22.92;33.66
48718;BME280;34521;33.042;-96.586;2023-04-22T05:17:20;99626.73;;;22.86;33.48
48718;BME280;34521;33.042;-96.586;2023-04-22T05:19:44;99622.93;;;22.54;33.87
48718;BME280;34521;33.042;-96.586;2023-04-22T05:22:09;99621.43;;;22.46;33.92
48718;BME280;34521;33.042;-96.586;2023-04-22T05:24:34;99618.23;;;22.37;33.99
48718;BME280;34521;33.042;-96.586;2023-04-22T05:27:00;99612.16;;;21.83;34.07
48718;BME280;34521;33.042;-96.586;2023-04-22T05:29:25;99604.53;;;21.79;33.73
48718;BME280;34521;33.042;-96.586;2023-04-22T05:31:50;99597.66;;;21.31;34.69
48718;BME280;34521;33.042;-96.586;2023-04-22T05:34:15;99594.18;;;21.30;34.67
48718;BME280;34521;33.042;-96.586;2023-04-22T05:36:40;99593.82;;;20.92;35.14
48718;BME280;34521;33.042;-96.586;2023-04-22T05:39:05;99590.26;;;20.84;35.20
48718;BME280;34521;33.042;-96.586;2023-04-22T05:41:30;99588.76;;;21.25;35.05
48718;BME280;34521;33.042;-96.586;2023-04-22T05:43:55;99589.40;;;21.68;34.40
48718;BME280;34521;33.042;-96.586;2023-04-22T05:46:20;99586.05;;;21.24;34.63
48718;BME280;34521;33.042;-96.586;2023-04-22T05:48:45;99577.86;;;20.06;36.45
48718;BME280;34521;33.042;-96.586;2023-04-22T05:51:10;99579.99;;;19.28;37.72
48718;BME280;34521;33.042;-96.586;2023-04-22T05:53:35;99573.44;;;18.59;39.40
48718;BME280;34521;33.042;-96.586;2023-04-22T05:56:00;99562.88;;;18.57;39.84
48718;BME280;34521;33.042;-96.586;2023-04-22T05:58:25;99557.58;;;18.39;40.07
48718;BME280;34521;33.042;-96.586;2023-04-22T06:00:50;99548.14;;;20.24;36.99
48718;BME280;34521;33.042;-96.586;2023-04-22T06:03:15;99548.92;;;20.30;36.30
48718;BME280;34521;33.042;-96.586;2023-04-22T06:05:40;99549.70;;;20.57;35.51
48718;BME280;34521;33.042;-96.586;2023-04-22T06:08:07;99549.78;;;21.11;34.83
48718;BME280;34521;33.042;-96.586;2023-04-22T06:10:30;99547.81;;;21.01;34.90
48718;BME280;34521;33.042;-96.586;2023-04-22T06:12:56;99549.34;;;20.69;34.97
48718;BME280;34521;33.042;-96.586;2023-04-22T06:15:21;99551.24;;;20.94;34.92
48718;BME280;34521;33.042;-96.586;2023-04-22T06:17:47;99549.36;;;21.24;34.53
48718;BME280;34521;33.042;-96.586;2023-04-22T06:20:11;99544.19;;;20.76;34.82
48718;BME280;34521;33.042;-96.586;2023-04-22T06:22:36;99537.41;;;20.81;34.73
48718;BME280;34521;33.042;-96.586;2023-04-22T06:25:01;99532.43;;;21.23;34.51
48718;BME280;34521;33.042;-96.586;2023-04-22T06:27:26;99525.95;;;21.08;34.58
48718;BME280;34521;33.042;-96.586;2023-04-22T06:29:51;99530.47;;;21.35;34.25
48718;BME280;34521;33.042;-96.586;2023-04-22T06:32:16;99531.01;;;20.96;34.41
48718;BME280;34521;33.042;-96.586;2023-04-22T06:34:41;99535.63;;;21.35;34.25
48718;BME280;34521;33.042;-96.586;2023-04-22T06:37:06;99536.57;;;21.35;34.23
48718;BME280;34521;33.042;-96.586;2023-04-22T06:39:31;99539.82;;;21.06;34.53
48718;BME280;34521;33.042;-96.586;2023-04-22T06:41:56;99535.82;;;21.02;34.24
48718;BME280;34521;33.042;-96.586;2023-04-22T06:44:22;99534.82;;;21.12;34.49
48718;BME280;34521;33.042;-96.586;2023-04-22T06:46:46;99541.21;;;19.72;36.75
48718;BME280;34521;33.042;-96.586;2023-04-22T06:49:11;99539.58;;;18.25;39.10
48718;BME280;34521;33.042;-96.586;2023-04-22T06:51:36;99542.37;;;18.08;39.71
48718;BME280;34521;33.042;-96.586;2023-04-22T06:54:01;99538.94;;;18.21;39.86
48718;BME280;34521;33.042;-96.586;2023-04-22T06:56:26;99535.40;;;18.02;40.06
48718;BME280;34521;33.042;-96.586;2023-04-22T06:58:51;99536.00;;;19.64;37.91
48718;BME280;34521;33.042;-96.586;2023-04-22T07:01:17;99526.43;;;20.63;35.59
48718;BME280;34521;33.042;-96.586;2023-04-22T07:03:41;99531.43;;;20.59;35.35
48718;BME280;34521;33.042;-96.586;2023-04-22T07:06:08;99528.74;;;20.42;35.21
48718;BME280;34521;33.042;-96.586;2023-04-22T07:08:31;99522.34;;;20.72;34.79
48718;BME280;34521;33.042;-96.586;2023-04-22T07:10:56;99518.18;;;20.65;34.55
48718;BME280;34521;33.042;-96.586;2023-04-22T07:13:22;99512.29;;;20.74;34.37
48718;BME280;34521;33.042;-96.586;2023-04-22T07:15:47;99510.48;;;21.00;34.35
48718;BME280;34521;33.042;-96.586;2023-04-22T07:18:12;99508.73;;;20.43;34.70
48718;BME280;34521;33.042;-96.586;2023-04-22T07:20:37;99499.63;;;20.47;34.60
48718;BME280;34521;33.042;-96.586;2023-04-22T07:23:02;99498.23;;;20.43;34.72
48718;BME280;34521;33.042;-96.586;2023-04-22T07:25:32;99491.32;;;20.17;34.67
48718;BME280;34521;33.042;-96.586;2023-04-22T07:27:52;99489.78;;;20.58;34.50
48718;BME280;34521;33.042;-96.586;2023-04-22T07:30:17;99492.22;;;20.32;34.75
48718;BME280;34521;33.042;-96.586;2023-04-22T07:32:42;99494.19;;;20.49;34.56
48718;BME280;34521;33.042;-96.586;2023-04-22T07:35:08;99489.71;;;20.31;34.72
48718;BME280;34521;33.042;-96.586;2023-04-22T07:37:32;99480.30;;;20.59;34.34
48718;BME280;34521;33.042;-96.586;2023-04-22T07:40:02;99468.41;;;20.36;34.68
48718;BME280;34521;33.042;-96.586;2023-04-22T07:42:22;99466.77;;;20.42;34.56
48718;BME280;34521;33.042;-96.586;2023-04-22T07:44:47;99468.74;;;20.41;34.57
48718;BME280;34521;33.042;-96.586;2023-04-22T07:47:12;99476.32;;;18.93;36.84
48718;BME280;34521;33.042;-96.586;2023-04-22T07:49:37;99481.13;;;18.09;38.86
48718;BME280;34521;33.042;-96.586;2023-04-22T07:52:03;99474.55;;;17.84;39.28
48718;BME280;34521;33.042;-96.586;2023-04-22T07:54:27;99472.00;;;17.81;39.59
48718;BME280;34521;33.042;-96.586;2023-04-22T07:56:52;99470.82;;;17.46;39.98
48718;BME280;34521;33.042;-96.586;2023-04-22T07:59:17;99465.96;;;20.00;36.16
48718;BME280;34521;33.042;-96.586;2023-04-22T08:01:42;99469.90;;;20.33;34.97
48718;BME280;34521;33.042;-96.586;2023-04-22T08:04:08;99466.22;;;20.70;34.46
48718;BME280;34521;33.042;-96.586;2023-04-22T08:06:38;99459.95;;;20.66;34.46
48718;BME280;34521;33.042;-96.586;2023-04-22T08:08:58;99454.77;;;20.37;34.17
48718;BME280;34521;33.042;-96.586;2023-04-22T08:11:24;99455.92;;;20.41;34.41
48718;BME280;34521;33.042;-96.586;2023-04-22T08:13:48;99454.07;;;20.64;34.06
48718;BME280;34521;33.042;-96.586;2023-04-22T08:16:13;99454.43;;;20.69;33.70
48718;BME280;34521;33.042;-96.586;2023-04-22T08:18:38;99457.35;;;20.64;33.73
48718;BME280;34521;33.042;-96.586;2023-04-22T08:21:03;99462.49;;;20.80;33.79
48718;BME280;34521;33.042;-96.586;2023-04-22T08:23:28;99464.56;;;20.57;33.80
48718;BME280;34521;33.042;-96.586;2023-04-22T08:25:53;99461.86;;;20.84;33.77
48718;BME280;34521;33.042;-96.586;2023-04-22T08:28:18;99459.71;;;20.79;33.79
48718;BME280;34521;33.042;-96.586;2023-04-22T08:30:43;99461.16;;;20.45;33.91
48718;BME280;34521;33.042;-96.586;2023-04-22T08:33:08;99463.56;;;20.47;33.90
48718;BME280;34521;33.042;-96.586;2023-04-22T08:35:34;99461.59;;;20.51;33.84
48718;BME280;34521;33.042;-96.586;2023-04-22T08:37:58;99460.66;;;20.69;33.54
48718;BME280;34521;33.042;-96.586;2023-04-22T08:40:23;99459.59;;;21.02;33.69
48718;BME280;34521;33.042;-96.586;2023-04-22T08:42:49;99461.55;;;20.69;33.57
48718;BME280;34521;33.042;-96.586;2023-04-22T08:45:14;99467.33;;;18.85;36.60
48718;BME280;34521;33.042;-96.586;2023-04-22T08:47:39;99470.67;;;17.22;39.42
48718;BME280;34521;33.042;-96.586;2023-04-22T08:50:04;99474.02;;;17.41;39.83
48718;BME280;34521;33.042;-96.586;2023-04-22T08:52:29;99474.52;;;17.51;39.71
48718;BME280;34521;33.042;-96.586;2023-04-22T08:54:58;99481.51;;;17.35;40.20
48718;BME280;34521;33.042;-96.586;2023-04-22T08:57:19;99483.38;;;18.98;36.93
48718;BME280;34521;33.042;-96.586;2023-04-22T08:59:44;99479.82;;;19.93;35.20
48718;BME280;34521;33.042;-96.586;2023-04-22T09:02:15;99486.24;;;19.96;34.73
48718;BME280;34521;33.042;-96.586;2023-04-22T09:04:33;99494.89;;;20.50;34.09
48718;BME280;34521;33.042;-96.586;2023-04-22T09:06:59;99502.12;;;19.93;34.15
48718;BME280;34521;33.042;-96.586;2023-04-22T09:09:25;99503.42;;;20.62;33.86
48718;BME280;34521;33.042;-96.586;2023-04-22T09:11:48;99502.15;;;20.59;33.62
48718;BME280;34521;33.042;-96.586;2023-04-22T09:14:15;99499.55;;;20.55;33.65
48718;BME280;34521;33.042;-96.586;2023-04-22T09:16:41;99504.83;;;20.29;33.92
48718;BME280;34521;33.042;-96.586;2023-04-22T09:19:04;99507.61;;;20.49;33.62
48718;BME280;34521;33.042;-96.586;2023-04-22T09:21:32;99505.29;;;20.31;33.52
48718;BME280;34521;33.042;-96.586;2023-04-22T09:23:55;99513.98;;;20.59;33.49
48718;BME280;34521;33.042;-96.586;2023-04-22T09:26:19;99516.80;;;20.28;33.82
48718;BME280;34521;33.042;-96.586;2023-04-22T09:28:49;99517.60;;;20.68;33.65
48718;BME280;34521;33.042;-96.586;2023-04-22T09:31:13;99518.08;;;20.22;33.60
48718;BME280;34521;33.042;-96.586;2023-04-22T09:33:38;99523.95;;;20.45;33.63
48718;BME280;34521;33.042;-96.586;2023-04-22T09:35:59;99529.89;;;20.85;33.40
48718;BME280;34521;33.042;-96.586;2023-04-22T09:38:30;99535.76;;;20.14;33.65
48718;BME280;34521;33.042;-96.586;2023-04-22T09:40:49;99540.25;;;20.23;33.82
48718;BME280;34521;33.042;-96.586;2023-04-22T09:43:17;99550.15;;;18.46;36.53
48718;BME280;34521;33.042;-96.586;2023-04-22T09:45:40;99550.90;;;16.89;38.98
48718;BME280;34521;33.042;-96.586;2023-04-22T09:48:08;99551.24;;;16.96;39.86
48718;BME280;34521;33.042;-96.586;2023-04-22T09:50:35;99561.65;;;16.75;40.25
48718;BME280;34521;33.042;-96.586;2023-04-22T09:52:56;99564.86;;;17.13;40.04
48718;BME280;34521;33.042;-96.586;2023-04-22T09:55:21;99562.86;;;18.09;38.43
48718;BME280;34521;33.042;-96.586;2023-04-22T09:57:44;99564.48;;;19.57;35.43
48718;BME280;34521;33.042;-96.586;2023-04-22T10:00:13;99566.39;;;20.11;34.41
48718;BME280;34521;33.042;-96.586;2023-04-22T10:02:35;99564.04;;;20.45;33.91
48718;BME280;34521;33.042;-96.586;2023-04-22T10:05:00;99560.76;;;20.11;33.64
48718;BME280;34521;33.042;-96.586;2023-04-22T10:07:26;99561.58;;;20.04;33.76
48718;BME280;34521;33.042;-96.586;2023-04-22T10:09:50;99565.20;;;20.47;33.50
48718;BME280;34521;33.042;-96.586;2023-04-22T10:12:15;99563.00;;;19.90;33.59
48718;BME280;34521;33.042;-96.586;2023-04-22T10:14:40;99562.48;;;20.06;33.65
48718;BME280;34521;33.042;-96.586;2023-04-22T10:17:05;99565.37;;;20.21;33.44
48718;BME280;34521;33.042;-96.586;2023-04-22T10:19:31;99570.20;;;20.11;33.26
48718;BME280;34521;33.042;-96.586;2023-04-22T10:21:57;99575.25;;;20.55;32.97
48718;BME280;34521;33.042;-96.586;2023-04-22T10:24:20;99579.81;;;20.34;33.23
48718;BME280;34521;33.042;-96.586;2023-04-22T10:26:53;99585.43;;;20.07;33.50
48718;BME280;34521;33.042;-96.586;2023-04-22T10:29:14;99582.63;;;20.09;33.13
48718;BME280;34521;33.042;-96.586;2023-04-22T10:31:37;99581.92;;;20.40;33.01
48718;BME280;34521;33.042;-96.586;2023-04-22T10:34:08;99583.33;;;20.25;33.20
48718;BME280;34521;33.042;-96.586;2023-04-22T10:36:25;99586.58;;;20.70;32.97
48718;BME280;34521;33.042;-96.586;2023-04-22T10:41:15;99599.17;;;19.96;33.50
48718;BME280;34521;33.042;-96.586;2023-04-22T10:43:42;99603.69;;;18.34;35.64
48718;BME280;34521;33.042;-96.586;2023-04-22T10:46:05;99611.71;;;16.98;38.68
48718;BME280;34521;33.042;-96.586;2023-04-22T10:50:55;99613.20;;;17.10;39.38
48718;BME280;34521;33.042;-96.586;2023-04-22T10:53:34;99617.74;;;16.76;39.45
48718;BME280;34521;33.042;-96.586;2023-04-22T10:55:49;99615.70;;;18.89;35.78
48718;BME280;34521;33.042;-96.586;2023-04-22T10:58:17;99613.20;;;19.43;34.63
48718;BME280;34521;33.042;-96.586;2023-04-22T11:00:41;99608.34;;;20.25;33.53
48718;BME280;34521;33.042;-96.586;2023-04-22T11:03:10;99607.76;;;20.11;33.39
48718;BME280;34521;33.042;-96.586;2023-04-22T11:05:26;99605.88;;;20.53;32.81
48718;BME280;34521;33.042;-96.586;2023-04-22T11:07:53;99611.16;;;20.12;33.28
48718;BME280;34521;33.042;-96.586;2023-04-22T11:10:30;99613.91;;;20.15;33.30
48718;BME280;34521;33.042;-96.586;2023-04-22T11:12:42;99610.61;;;19.90;33.17
48718;BME280;34521;33.042;-96.586;2023-04-22T11:15:06;99615.65;;;20.30;32.96
48718;BME280;34521;33.042;-96.586;2023-04-22T11:17:31;99620.44;;;20.16;33.14
48718;BME280;34521;33.042;-96.586;2023-04-22T11:19:57;99630.17;;;20.36;32.97
48718;BME280;34521;33.042;-96.586;2023-04-22T11:22:21;99638.72;;;20.45;32.77
48718;BME280;34521;33.042;-96.586;2023-04-22T11:24:53;99642.90;;;20.41;32.74
48718;BME280;34521;33.042;-96.586;2023-04-22T11:27:12;99641.37;;;20.58;32.53
48718;BME280;34521;33.042;-96.586;2023-04-22T11:29:36;99643.73;;;20.35;32.81
48718;BME280;34521;33.042;-96.586;2023-04-22T11:32:02;99646.54;;;20.12;32.82
48718;BME280;34521;33.042;-96.586;2023-04-22T11:34:31;99647.47;;;20.59;32.43
48718;BME280;34521;33.042;-96.586;2023-04-22T11:36:51;99655.80;;;20.11;33.04
48718;BME280;34521;33.042;-96.586;2023-04-22T11:39:16;99661.90;;;20.26;32.85
48718;BME280;34521;33.042;-96.586;2023-04-22T11:41:41;99664.20;;;18.31;35.43
48718;BME280;34521;33.042;-96.586;2023-04-22T11:44:06;99671.16;;;16.59;39.01
48718;BME280;34521;33.042;-96.586;2023-04-22T11:46:31;99672.89;;;16.64;39.44
48718;BME280;34521;33.042;-96.586;2023-04-22T11:49:12;99675.84;;;16.94;38.95
48718;BME280;34521;33.042;-96.586;2023-04-22T11:51:21;99681.35;;;17.02;38.94
48718;BME280;34521;33.042;-96.586;2023-04-22T11:53:50;99679.03;;;18.36;36.80
48718;BME280;34521;33.042;-96.586;2023-04-22T11:56:12;99685.69;;;19.30;34.76
48718;BME280;34521;33.042;-96.586;2023-04-22T11:58:39;99689.69;;;19.54;33.95
48718;BME280;34521;33.042;-96.586;2023-04-22T12:01:01;99695.69;;;19.71;33.72
48718;BME280;34521;33.042;-96.586;2023-04-22T12:03:28;99694.56;;;19.95;33.37
48718;BME280;34521;33.042;-96.586;2023-04-22T12:05:53;99695.45;;;20.06;33.18
48718;BME280;34521;33.042;-96.586;2023-04-22T12:08:19;99696.60;;;20.40;32.54
48718;BME280;34521;33.042;-96.586;2023-04-22T12:10:44;99700.05;;;19.96;32.95
48718;BME280;34521;33.042;-96.586;2023-04-22T12:13:07;99704.69;;;20.19;32.62
48718;BME280;34521;33.042;-96.586;2023-04-22T12:15:41;99714.40;;;20.38;32.76
48718;BME280;34521;33.042;-96.586;2023-04-22T12:17:57;99726.15;;;19.86;32.79
48718;BME280;34521;33.042;-96.586;2023-04-22T12:20:22;99740.12;;;20.04;32.83
48718;BME280;34521;33.042;-96.586;2023-04-22T12:22:47;99746.86;;;20.10;32.76
48718;BME280;34521;33.042;-96.586;2023-04-22T12:25:17;99752.78;;;20.24;32.64
48718;BME280;34521;33.042;-96.586;2023-04-22T12:27:37;99756.72;;;20.02;32.84
48718;BME280;34521;33.042;-96.586;2023-04-22T12:30:04;99757.70;;;20.16;32.67
48718;BME280;34521;33.042;-96.586;2023-04-22T12:32:27;99760.48;;;20.41;32.38